Traveler — WDD5082 — position and weather

sailwx.info

Track history (hours):
 
Tides and Currents Weather Stations Pressure Air Temp Water Temp Dewpoint Dewpoint Depression Visibility Wind Speed Wind Dir Waves Ship Positions

Traveler

Owner: Traveler Fisheries LLC, Seattle, WA. More information available from US FCC via Universal Licensing System and Coast Guard Vessel Documentation Center.

Last reported at 2017-Nov-01 18:23 UTC. Time now 2017-Dec-11 19:12 UTC.
Position N 47°40' W 122°23'.
Warning: this ship's position is 40 days out of date.

Length 36 m.

Type: Fishing. MMSI: 366401480.

Date/timePositionNaut miles runAvg speedWind from/ knotsBaromVisibWave heightAir tempDewpointWater temp
2017-Nov-01 18:23N 47°40' W 122°23'32 1.9
2017-Nov-01 01:18N 48°09' W 122°44'2 6.1
2017-Nov-01 01:00N 48°10' W 122°46'3 6.2
2017-Nov-01 00:29N 48°10' W 122°51'4 7.4
2017-Oct-31 23:56N 48°11' W 122°57'5 8.2
2017-Oct-31 23:19N 48°12' W 123°05'3 8.1
2017-Oct-31 22:59N 48°12' W 123°09'4 8.3
2017-Oct-31 22:30N 48°12' W 123°15'4 8.1
2017-Oct-31 22:00N 48°12' W 123°21'4 8.2
2017-Oct-31 21:30N 48°12' W 123°27'4 8.1
2017-Oct-31 21:00N 48°12' W 123°33'3 7.0
2017-Oct-31 20:30N 48°12' W 123°38'4 8.8
2017-Oct-31 20:00N 48°12' W 123°45'5 8.8
2017-Oct-31 19:29N 48°12' W 123°51'4 8.7
2017-Oct-31 18:59N 48°13' W 123°58'4 8.4
2017-Oct-31 18:28N 48°15' W 124°04'4 7.9
2017-Oct-31 18:00N 48°16' W 124°09'4 8.0
2017-Oct-31 17:30N 48°18' W 124°14'4 7.5
2017-Oct-31 17:00N 48°20' W 124°19'3 6.2
2017-Oct-31 16:30N 48°21' W 124°23'3 5.5
2017-Oct-31 16:00N 48°22' W 124°27'3 5.8
2017-Oct-31 15:28N 48°24' W 124°31'3 5.7
2017-Oct-31 15:00N 48°25' W 124°35'3 5.6
2017-Oct-31 14:30N 48°25' W 124°39'3 5.6
2017-Oct-31 13:59N 48°25' W 124°44'2 4.9
2017-Oct-31 13:30N 48°24' W 124°47'3 5.1
2017-Oct-31 13:00N 48°22' W 124°49'3 5.5
2017-Oct-31 12:30N 48°19' W 124°50'3 6.2
2017-Oct-31 11:59N 48°16' W 124°52'3 6.6
2017-Oct-31 11:29N 48°13' W 124°54'4 7.3
2017-Oct-31 10:55N 48°09' W 124°56'4 8.3
2017-Oct-31 10:30N 48°06' W 124°58'4 7.8
2017-Oct-31 10:00N 48°02' W 124°60'4 7.5
2017-Oct-31 09:30N 47°59' W 125°02'4 8.7
2017-Oct-31 09:00N 47°55' W 125°04'5 9.6
2017-Oct-31 08:30N 47°50' W 125°06'4 1.8
2017-Oct-31 06:27N 47°47' W 125°06'8 0.5
2017-Oct-30 15:23N 47°38' W 125°07'2 0.7
2017-Oct-30 12:35N 47°37' W 125°05'50 2.7
2017-Oct-29 18:05N 46°47' W 124°53'5 9.7
2017-Oct-29 17:36N 46°43' W 124°50'1 9.8
2017-Oct-29 17:30N 46°42' W 124°50'5 9.6
2017-Oct-29 17:01N 46°39' W 124°44'5 9.9
2017-Oct-29 16:31N 46°36' W 124°39'5 9.8
2017-Oct-29 16:00N 46°33' W 124°33'5 9.1
2017-Oct-29 15:30N 46°29' W 124°31'4 8.5
2017-Oct-29 15:01N 46°25' W 124°34'5 9.3
2017-Oct-29 14:30N 46°21' W 124°36'5 9.8
2017-Oct-29 14:01N 46°16' W 124°37'5 9.8
2017-Oct-29 13:31N 46°11' W 124°38'5 9.6
2017-Oct-29 13:01N 46°06' W 124°38'5 9.5
2017-Oct-29 12:29N 46°01' W 124°39'5 9.5
2017-Oct-29 12:00N 45°57' W 124°40'5 9.7
2017-Oct-29 11:30N 45°52' W 124°41'5 9.6
2017-Oct-29 11:01N 45°47' W 124°41'5 9.6
2017-Oct-29 10:30N 45°43' W 124°42'5 9.7
2017-Oct-29 10:00N 45°38' W 124°43'5 9.9
2017-Oct-29 09:31N 45°33' W 124°44'5 9.9
2017-Oct-29 09:00N 45°28' W 124°44'6 9.8
2017-Oct-29 08:21N 45°22' W 124°45'3 9.9
2017-Oct-29 08:00N 45°18' W 124°46'5 9.8
2017-Oct-29 07:30N 45°13' W 124°47'5 9.9
2017-Oct-29 06:59N 45°08' W 124°47'5 9.9
2017-Oct-29 06:30N 45°03' W 124°48'5 9.8
2017-Oct-29 06:00N 44°58' W 124°49'5 9.7
2017-Oct-29 05:30N 44°54' W 124°50'6 9.6
2017-Oct-29 04:54N 44°48' W 124°50'4 9.4
2017-Oct-29 04:30N 44°44' W 124°51'5 9.4
2017-Oct-29 04:00N 44°40' W 124°51'  
Track history (hours):
 
Tides and Currents Weather Stations Pressure Air Temp Water Temp Dewpoint Dewpoint Depression Visibility Wind Speed Wind Dir Waves Ship Positions

Traveler

Owner: Traveler Fisheries LLC, Seattle, WA. More information available from US FCC via Universal Licensing System and Coast Guard Vessel Documentation Center.

Last reported at 2017-Nov-01 18:23 UTC. Time now 2017-Dec-11 19:12 UTC.
Position N 47°40' W 122°23'.
Warning: this ship's position is 40 days out of date.

Length 36 m.

Type: Fishing. MMSI: 366401480.

Date/timePositionNaut miles runAvg speedWind from/ knotsBaromVisibWave heightAir tempDewpointWater temp
2017-Nov-01 18:23N 47°40' W 122°23'32 1.9
2017-Nov-01 01:18N 48°09' W 122°44'2 6.1
2017-Nov-01 01:00N 48°10' W 122°46'3 6.2
2017-Nov-01 00:29N 48°10' W 122°51'4 7.4
2017-Oct-31 23:56N 48°11' W 122°57'5 8.2
2017-Oct-31 23:19N 48°12' W 123°05'3 8.1
2017-Oct-31 22:59N 48°12' W 123°09'4 8.3
2017-Oct-31 22:30N 48°12' W 123°15'4 8.1
2017-Oct-31 22:00N 48°12' W 123°21'4 8.2
2017-Oct-31 21:30N 48°12' W 123°27'4 8.1
2017-Oct-31 21:00N 48°12' W 123°33'3 7.0
2017-Oct-31 20:30N 48°12' W 123°38'4 8.8
2017-Oct-31 20:00N 48°12' W 123°45'5 8.8
2017-Oct-31 19:29N 48°12' W 123°51'4 8.7
2017-Oct-31 18:59N 48°13' W 123°58'4 8.4
2017-Oct-31 18:28N 48°15' W 124°04'4 7.9
2017-Oct-31 18:00N 48°16' W 124°09'4 8.0
2017-Oct-31 17:30N 48°18' W 124°14'4 7.5
2017-Oct-31 17:00N 48°20' W 124°19'3 6.2
2017-Oct-31 16:30N 48°21' W 124°23'3 5.5
2017-Oct-31 16:00N 48°22' W 124°27'3 5.8
2017-Oct-31 15:28N 48°24' W 124°31'3 5.7
2017-Oct-31 15:00N 48°25' W 124°35'3 5.6
2017-Oct-31 14:30N 48°25' W 124°39'3 5.6
2017-Oct-31 13:59N 48°25' W 124°44'2 4.9
2017-Oct-31 13:30N 48°24' W 124°47'3 5.1
2017-Oct-31 13:00N 48°22' W 124°49'3 5.5
2017-Oct-31 12:30N 48°19' W 124°50'3 6.2
2017-Oct-31 11:59N 48°16' W 124°52'3 6.6
2017-Oct-31 11:29N 48°13' W 124°54'4 7.3
2017-Oct-31 10:55N 48°09' W 124°56'4 8.3
2017-Oct-31 10:30N 48°06' W 124°58'4 7.8
2017-Oct-31 10:00N 48°02' W 124°60'4 7.5
2017-Oct-31 09:30N 47°59' W 125°02'4 8.7
2017-Oct-31 09:00N 47°55' W 125°04'5 9.6
2017-Oct-31 08:30N 47°50' W 125°06'4 1.8
2017-Oct-31 06:27N 47°47' W 125°06'8 0.5
2017-Oct-30 15:23N 47°38' W 125°07'2 0.7
2017-Oct-30 12:35N 47°37' W 125°05'50 2.7
2017-Oct-29 18:05N 46°47' W 124°53'5 9.7
2017-Oct-29 17:36N 46°43' W 124°50'1 9.8
2017-Oct-29 17:30N 46°42' W 124°50'5 9.6
2017-Oct-29 17:01N 46°39' W 124°44'5 9.9
2017-Oct-29 16:31N 46°36' W 124°39'5 9.8
2017-Oct-29 16:00N 46°33' W 124°33'5 9.1
2017-Oct-29 15:30N 46°29' W 124°31'4 8.5
2017-Oct-29 15:01N 46°25' W 124°34'5 9.3
2017-Oct-29 14:30N 46°21' W 124°36'5 9.8
2017-Oct-29 14:01N 46°16' W 124°37'5 9.8
2017-Oct-29 13:31N 46°11' W 124°38'5 9.6
2017-Oct-29 13:01N 46°06' W 124°38'5 9.5
2017-Oct-29 12:29N 46°01' W 124°39'5 9.5
2017-Oct-29 12:00N 45°57' W 124°40'5 9.7
2017-Oct-29 11:30N 45°52' W 124°41'5 9.6
2017-Oct-29 11:01N 45°47' W 124°41'5 9.6
2017-Oct-29 10:30N 45°43' W 124°42'5 9.7
2017-Oct-29 10:00N 45°38' W 124°43'5 9.9
2017-Oct-29 09:31N 45°33' W 124°44'5 9.9
2017-Oct-29 09:00N 45°28' W 124°44'6 9.8
2017-Oct-29 08:21N 45°22' W 124°45'3 9.9
2017-Oct-29 08:00N 45°18' W 124°46'5 9.8
2017-Oct-29 07:30N 45°13' W 124°47'5 9.9
2017-Oct-29 06:59N 45°08' W 124°47'5 9.9
2017-Oct-29 06:30N 45°03' W 124°48'5 9.8
2017-Oct-29 06:00N 44°58' W 124°49'5 9.7
2017-Oct-29 05:30N 44°54' W 124°50'6 9.6
2017-Oct-29 04:54N 44°48' W 124°50'4 9.4
2017-Oct-29 04:30N 44°44' W 124°51'5 9.4
2017-Oct-29 04:00N 44°40' W 124°51'  

Dump ship's entire track history